sensor_id;sensor_type;location;lat;lon;timestamp;P1;durP1;ratioP1;P2;durP2;ratioP2
15843;SDS011;50807;52.436;13.346;2022-12-16T00:00:02;27.47;;;24.67;;
15843;SDS011;50807;52.436;13.346;2022-12-16T00:00:36;27.35;;;24.65;;
15843;SDS011;50807;52.436;13.346;2022-12-16T00:01:09;26.40;;;23.70;;
15843;SDS011;50807;52.436;13.346;2022-12-16T00:01:42;26.73;;;23.92;;
15843;SDS011;50807;52.436;13.346;2022-12-16T00:02:12;27.07;;;24.37;;
15843;SDS011;50807;52.436;13.346;2022-12-16T00:02:43;27.30;;;24.47;;
15843;SDS011;50807;52.436;13.346;2022-12-16T00:03:15;26.05;;;23.35;;
15843;SDS011;50807;52.436;13.346;2022-12-16T00:03:46;26.57;;;23.87;;
15843;SDS011;50807;52.436;13.346;2022-12-16T00:04:18;26.77;;;23.98;;
15843;SDS011;50807;52.436;13.346;2022-12-16T00:04:50;26.48;;;23.67;;
15843;SDS011;50807;52.436;13.346;2022-12-16T00:05:21;26.87;;;24.07;;
15843;SDS011;50807;52.436;13.346;2022-12-16T00:05:53;27.80;;;24.90;;
15843;SDS011;50807;52.436;13.346;2022-12-16T00:06:25;27.15;;;24.30;;
15843;SDS011;50807;52.436;13.346;2022-12-16T00:06:59;28.60;;;25.63;;
15843;SDS011;50807;52.436;13.346;2022-12-16T00:07:31;27.98;;;25.08;;
15843;SDS011;50807;52.436;13.346;2022-12-16T00:08:02;28.27;;;25.47;;
15843;SDS011;50807;52.436;13.346;2022-12-16T00:08:34;28.83;;;25.73;;
15843;SDS011;50807;52.436;13.346;2022-12-16T00:09:08;28.40;;;25.40;;
15843;SDS011;50807;52.436;13.346;2022-12-16T00:09:39;27.37;;;24.50;;
15843;SDS011;50807;52.436;13.346;2022-12-16T00:10:10;27.57;;;24.57;;
15843;SDS011;50807;52.436;13.346;2022-12-16T00:10:43;26.92;;;24.13;;
15843;SDS011;50807;52.436;13.346;2022-12-16T00:11:23;27.10;;;24.40;;
15843;SDS011;50807;52.436;13.346;2022-12-16T00:11:55;26.58;;;23.88;;
15843;SDS011;50807;52.436;13.346;2022-12-16T00:12:26;27.25;;;24.55;;
15843;SDS011;50807;52.436;13.346;2022-12-16T00:12:57;28.10;;;25.20;;
15843;SDS011;50807;52.436;13.346;2022-12-16T00:13:29;27.60;;;24.70;;
15843;SDS011;50807;52.436;13.346;2022-12-16T00:14:02;28.27;;;25.27;;
15843;SDS011;50807;52.436;13.346;2022-12-16T00:14:34;27.35;;;24.58;;
15843;SDS011;50807;52.436;13.346;2022-12-16T00:15:05;27.97;;;25.07;;
15843;SDS011;50807;52.436;13.346;2022-12-16T00:15:36;26.15;;;23.55;;
15843;SDS011;50807;52.436;13.346;2022-12-16T00:16:09;26.75;;;24.05;;
15843;SDS011;50807;52.436;13.346;2022-12-16T00:16:42;26.60;;;23.83;;
15843;SDS011;50807;52.436;13.346;2022-12-16T00:17:14;26.05;;;23.35;;
15843;SDS011;50807;52.436;13.346;2022-12-16T00:17:44;28.60;;;25.67;;
15843;SDS011;50807;52.436;13.346;2022-12-16T00:18:15;26.00;;;23.40;;
15843;SDS011;50807;52.436;13.346;2022-12-16T00:18:48;27.55;;;24.75;;
15843;SDS011;50807;52.436;13.346;2022-12-16T00:19:20;27.65;;;24.83;;
15843;SDS011;50807;52.436;13.346;2022-12-16T00:19:50;28.50;;;25.10;;
15843;SDS011;50807;52.436;13.346;2022-12-16T00:20:22;25.65;;;22.85;;
15843;SDS011;50807;52.436;13.346;2022-12-16T00:20:53;28.23;;;25.25;;
15843;SDS011;50807;52.436;13.346;2022-12-16T00:21:24;26.43;;;23.83;;
15843;SDS011;50807;52.436;13.346;2022-12-16T00:21:58;27.33;;;24.50;;
15843;SDS011;50807;52.436;13.346;2022-12-16T00:22:30;26.50;;;23.80;;
15843;SDS011;50807;52.436;13.346;2022-12-16T00:23:01;25.75;;;23.20;;
15843;SDS011;50807;52.436;13.346;2022-12-16T00:23:32;26.30;;;23.50;;
15843;SDS011;50807;52.436;13.346;2022-12-16T00:24:05;27.08;;;24.27;;
15843;SDS011;50807;52.436;13.346;2022-12-16T00:24:36;26.30;;;23.77;;
15843;SDS011;50807;52.436;13.346;2022-12-16T00:25:07;26.02;;;23.33;;
15843;SDS011;50807;52.436;13.346;2022-12-16T00:25:40;27.58;;;24.65;;
15843;SDS011;50807;52.436;13.346;2022-12-16T00:26:12;26.52;;;23.80;;
15843;SDS011;50807;52.436;13.346;2022-12-16T00:26:43;27.23;;;24.35;;
15843;SDS011;50807;52.436;13.346;2022-12-16T00:27:15;27.27;;;24.05;;
15843;SDS011;50807;52.436;13.346;2022-12-16T00:27:46;27.37;;;24.57;;
15843;SDS011;50807;52.436;13.346;2022-12-16T00:28:17;26.30;;;23.47;;
15843;SDS011;50807;52.436;13.346;2022-12-16T00:28:51;27.42;;;24.45;;
15843;SDS011;50807;52.436;13.346;2022-12-16T00:29:22;27.77;;;24.97;;
15843;SDS011;50807;52.436;13.346;2022-12-16T00:29:53;27.10;;;24.30;;
15843;SDS011;50807;52.436;13.346;2022-12-16T00:30:25;28.05;;;25.20;;
15843;SDS011;50807;52.436;13.346;2022-12-16T00:30:56;29.30;;;26.27;;
15843;SDS011;50807;52.436;13.346;2022-12-16T00:31:28;27.35;;;24.60;;
15843;SDS011;50807;52.436;13.346;2022-12-16T00:31:58;27.37;;;24.67;;
15843;SDS011;50807;52.436;13.346;2022-12-16T00:32:31;28.35;;;25.52;;
15843;SDS011;50807;52.436;13.346;2022-12-16T00:33:02;27.77;;;24.97;;
15843;SDS011;50807;52.436;13.346;2022-12-16T00:33:34;26.67;;;23.88;;
15843;SDS011;50807;52.436;13.346;2022-12-16T00:34:06;28.23;;;25.40;;
15843;SDS011;50807;52.436;13.346;2022-12-16T00:34:36;27.23;;;24.63;;
15843;SDS011;50807;52.436;13.346;2022-12-16T00:35:08;26.77;;;23.88;;
15843;SDS011;50807;52.436;13.346;2022-12-16T00:35:39;26.53;;;23.77;;
15843;SDS011;50807;52.436;13.346;2022-12-16T00:36:10;27.47;;;24.63;;
15843;SDS011;50807;52.436;13.346;2022-12-16T00:36:41;27.60;;;24.75;;
15843;SDS011;50807;52.436;13.346;2022-12-16T00:37:13;26.98;;;24.17;;
15843;SDS011;50807;52.436;13.346;2022-12-16T00:37:44;27.17;;;24.27;;
15843;SDS011;50807;52.436;13.346;2022-12-16T00:38:17;27.35;;;24.65;;
15843;SDS011;50807;52.436;13.346;2022-12-16T00:38:50;27.33;;;24.42;;
15843;SDS011;50807;52.436;13.346;2022-12-16T00:39:21;27.00;;;24.17;;
15843;SDS011;50807;52.436;13.346;2022-12-16T00:39:53;26.40;;;23.70;;
15843;SDS011;50807;52.436;13.346;2022-12-16T00:40:24;27.75;;;24.88;;
15843;SDS011;50807;52.436;13.346;2022-12-16T00:40:56;26.35;;;23.75;;
15843;SDS011;50807;52.436;13.346;2022-12-16T00:41:29;27.20;;;24.30;;
15843;SDS011;50807;52.436;13.346;2022-12-16T00:41:59;27.08;;;24.27;;
15843;SDS011;50807;52.436;13.346;2022-12-16T00:42:30;26.23;;;23.53;;
15843;SDS011;50807;52.436;13.346;2022-12-16T00:43:02;26.27;;;23.48;;
15843;SDS011;50807;52.436;13.346;2022-12-16T00:43:33;27.70;;;24.83;;
15843;SDS011;50807;52.436;13.346;2022-12-16T00:44:04;27.50;;;24.60;;
15843;SDS011;50807;52.436;13.346;2022-12-16T00:44:35;27.67;;;24.80;;
15843;SDS011;50807;52.436;13.346;2022-12-16T00:45:06;27.00;;;24.20;;
15843;SDS011;50807;52.436;13.346;2022-12-16T00:45:38;26.90;;;24.02;;
15843;SDS011;50807;52.436;13.346;2022-12-16T00:46:10;25.77;;;23.20;;
15843;SDS011;50807;52.436;13.346;2022-12-16T00:46:40;26.87;;;24.17;;
15843;SDS011;50807;52.436;13.346;2022-12-16T00:47:12;25.88;;;23.17;;
15843;SDS011;50807;52.436;13.346;2022-12-16T00:47:43;26.13;;;23.35;;
15843;SDS011;50807;52.436;13.346;2022-12-16T00:48:14;26.93;;;24.10;;
15843;SDS011;50807;52.436;13.346;2022-12-16T00:48:45;27.52;;;24.73;;
15843;SDS011;50807;52.436;13.346;2022-12-16T00:49:17;26.30;;;23.60;;
15843;SDS011;50807;52.436;13.346;2022-12-16T00:49:48;27.03;;;24.23;;
15843;SDS011;50807;52.436;13.346;2022-12-16T00:50:19;26.63;;;23.83;;
15843;SDS011;50807;52.436;13.346;2022-12-16T00:50:51;25.52;;;22.92;;
15843;SDS011;50807;52.436;13.346;2022-12-16T00:51:23;26.50;;;23.83;;
15843;SDS011;50807;52.436;13.346;2022-12-16T00:51:54;27.73;;;24.83;;
15843;SDS011;50807;52.436;13.346;2022-12-16T00:52:25;25.88;;;23.27;;
15843;SDS011;50807;52.436;13.346;2022-12-16T00:52:56;25.40;;;22.80;;
15843;SDS011;50807;52.436;13.346;2022-12-16T00:53:27;26.00;;;23.23;;
15843;SDS011;50807;52.436;13.346;2022-12-16T00:53:59;26.83;;;24.13;;
15843;SDS011;50807;52.436;13.346;2022-12-16T00:54:30;26.55;;;23.77;;
15843;SDS011;50807;52.436;13.346;2022-12-16T00:55:01;26.03;;;23.23;;
15843;SDS011;50807;52.436;13.346;2022-12-16T00:55:32;26.37;;;23.77;;
15843;SDS011;50807;52.436;13.346;2022-12-16T00:56:04;26.73;;;24.17;;
15843;SDS011;50807;52.436;13.346;2022-12-16T00:56:39;27.20;;;24.42;;
15843;SDS011;50807;52.436;13.346;2022-12-16T00:57:10;26.13;;;23.42;;
15843;SDS011;50807;52.436;13.346;2022-12-16T00:57:42;25.90;;;23.30;;
15843;SDS011;50807;52.436;13.346;2022-12-16T00:58:13;25.77;;;23.17;;
15843;SDS011;50807;52.436;13.346;2022-12-16T00:58:44;26.60;;;23.88;;
15843;SDS011;50807;52.436;13.346;2022-12-16T00:59:16;25.20;;;22.17;;
15843;SDS011;50807;52.436;13.346;2022-12-16T00:59:47;27.17;;;24.30;;
15843;SDS011;50807;52.436;13.346;2022-12-16T01:00:18;27.90;;;24.13;;
15843;SDS011;50807;52.436;13.346;2022-12-16T01:00:51;26.25;;;23.67;;
15843;SDS011;50807;52.436;13.346;2022-12-16T01:01:22;27.23;;;24.33;;
15843;SDS011;50807;52.436;13.346;2022-12-16T01:01:52;26.07;;;23.27;;
15843;SDS011;50807;52.436;13.346;2022-12-16T01:02:24;26.33;;;23.75;;
15843;SDS011;50807;52.436;13.346;2022-12-16T01:02:55;25.13;;;22.47;;
15843;SDS011;50807;52.436;13.346;2022-12-16T01:03:26;27.27;;;24.40;;
15843;SDS011;50807;52.436;13.346;2022-12-16T01:03:58;26.52;;;23.83;;
15843;SDS011;50807;52.436;13.346;2022-12-16T01:04:29;26.33;;;23.60;;
15843;SDS011;50807;52.436;13.346;2022-12-16T01:04:59;25.30;;;22.63;;
15843;SDS011;50807;52.436;13.346;2022-12-16T01:05:31;26.08;;;23.38;;
15843;SDS011;50807;52.436;13.346;2022-12-16T01:06:05;26.80;;;24.00;;
15843;SDS011;50807;52.436;13.346;2022-12-16T01:06:38;26.77;;;23.98;;
15843;SDS011;50807;52.436;13.346;2022-12-16T01:07:09;25.90;;;23.35;;
15843;SDS011;50807;52.436;13.346;2022-12-16T01:07:40;27.07;;;24.27;;
15843;SDS011;50807;52.436;13.346;2022-12-16T01:08:11;26.65;;;23.95;;
15843;SDS011;50807;52.436;13.346;2022-12-16T01:08:43;27.55;;;24.55;;
15843;SDS011;50807;52.436;13.346;2022-12-16T01:09:17;27.85;;;24.98;;
15843;SDS011;50807;52.436;13.346;2022-12-16T01:09:48;27.27;;;24.50;;
15843;SDS011;50807;52.436;13.346;2022-12-16T01:10:19;26.80;;;23.98;;
15843;SDS011;50807;52.436;13.346;2022-12-16T01:10:53;26.83;;;24.02;;
15843;SDS011;50807;52.436;13.346;2022-12-16T01:11:25;27.80;;;24.85;;
15843;SDS011;50807;52.436;13.346;2022-12-16T01:11:58;25.45;;;22.80;;
15843;SDS011;50807;52.436;13.346;2022-12-16T01:12:29;26.13;;;23.48;;
15843;SDS011;50807;52.436;13.346;2022-12-16T01:13:00;25.95;;;23.35;;
15843;SDS011;50807;52.436;13.346;2022-12-16T01:13:32;26.25;;;23.48;;
15843;SDS011;50807;52.436;13.346;2022-12-16T01:14:03;27.33;;;24.43;;
15843;SDS011;50807;52.436;13.346;2022-12-16T01:14:34;26.73;;;24.10;;
15843;SDS011;50807;52.436;13.346;2022-12-16T01:15:06;25.70;;;23.00;;
15843;SDS011;50807;52.436;13.346;2022-12-16T01:15:41;26.75;;;23.95;;
15843;SDS011;50807;52.436;13.346;2022-12-16T01:16:13;26.60;;;23.90;;
15843;SDS011;50807;52.436;13.346;2022-12-16T01:16:44;28.33;;;25.40;;
15843;SDS011;50807;52.436;13.346;2022-12-16T01:17:15;27.47;;;24.47;;
15843;SDS011;50807;52.436;13.346;2022-12-16T01:17:47;26.70;;;23.83;;
15843;SDS011;50807;52.436;13.346;2022-12-16T01:18:18;26.30;;;23.50;;
15843;SDS011;50807;52.436;13.346;2022-12-16T01:18:50;26.98;;;24.20;;
15843;SDS011;50807;52.436;13.346;2022-12-16T01:19:22;25.27;;;22.60;;
15843;SDS011;50807;52.436;13.346;2022-12-16T01:19:53;26.20;;;23.50;;
15843;SDS011;50807;52.436;13.346;2022-12-16T01:20:24;25.70;;;23.20;;
15843;SDS011;50807;52.436;13.346;2022-12-16T01:21:00;27.38;;;24.58;;
15843;SDS011;50807;52.436;13.346;2022-12-16T01:21:32;26.67;;;23.95;;
15843;SDS011;50807;52.436;13.346;2022-12-16T01:22:03;25.48;;;22.90;;
15843;SDS011;50807;52.436;13.346;2022-12-16T01:22:34;26.17;;;23.47;;
15843;SDS011;50807;52.436;13.346;2022-12-16T01:23:05;25.25;;;22.75;;
15843;SDS011;50807;52.436;13.346;2022-12-16T01:23:37;26.70;;;23.92;;
15843;SDS011;50807;52.436;13.346;2022-12-16T01:24:08;26.17;;;23.57;;
15843;SDS011;50807;52.436;13.346;2022-12-16T01:24:40;28.42;;;24.33;;
15843;SDS011;50807;52.436;13.346;2022-12-16T01:25:14;24.77;;;22.27;;
15843;SDS011;50807;52.436;13.346;2022-12-16T01:25:48;25.88;;;23.27;;
15843;SDS011;50807;52.436;13.346;2022-12-16T01:26:21;26.05;;;23.25;;
15843;SDS011;50807;52.436;13.346;2022-12-16T01:26:53;26.48;;;23.77;;
15843;SDS011;50807;52.436;13.346;2022-12-16T01:27:26;26.13;;;23.33;;
15843;SDS011;50807;52.436;13.346;2022-12-16T01:27:57;27.02;;;24.23;;
15843;SDS011;50807;52.436;13.346;2022-12-16T01:28:29;27.13;;;24.23;;
15843;SDS011;50807;52.436;13.346;2022-12-16T01:29:00;26.95;;;24.23;;
15843;SDS011;50807;52.436;13.346;2022-12-16T01:29:32;27.30;;;24.42;;
15843;SDS011;50807;52.436;13.346;2022-12-16T01:30:03;26.77;;;24.15;;
15843;SDS011;50807;52.436;13.346;2022-12-16T01:30:35;25.55;;;22.92;;
15843;SDS011;50807;52.436;13.346;2022-12-16T01:31:06;24.77;;;22.17;;
15843;SDS011;50807;52.436;13.346;2022-12-16T01:31:38;25.95;;;23.38;;
15843;SDS011;50807;52.436;13.346;2022-12-16T01:32:10;25.03;;;22.53;;
15843;SDS011;50807;52.436;13.346;2022-12-16T01:32:42;25.85;;;23.17;;
15843;SDS011;50807;52.436;13.346;2022-12-16T01:33:14;26.08;;;23.48;;
15843;SDS011;50807;52.436;13.346;2022-12-16T01:33:46;27.20;;;24.38;;
15843;SDS011;50807;52.436;13.346;2022-12-16T01:34:17;26.57;;;23.77;;
15843;SDS011;50807;52.436;13.346;2022-12-16T01:34:49;25.98;;;23.20;;
15843;SDS011;50807;52.436;13.346;2022-12-16T01:35:22;26.90;;;24.17;;
15843;SDS011;50807;52.436;13.346;2022-12-16T01:35:57;24.95;;;22.33;;
15843;SDS011;50807;52.436;13.346;2022-12-16T01:36:30;26.98;;;24.17;;
15843;SDS011;50807;52.436;13.346;2022-12-16T01:37:01;26.07;;;23.33;;
15843;SDS011;50807;52.436;13.346;2022-12-16T01:37:33;27.02;;;24.13;;
15843;SDS011;50807;52.436;13.346;2022-12-16T01:38:04;26.07;;;23.37;;
15843;SDS011;50807;52.436;13.346;2022-12-16T01:38:35;27.50;;;24.50;;
15843;SDS011;50807;52.436;13.346;2022-12-16T01:39:07;25.98;;;23.38;;
15843;SDS011;50807;52.436;13.346;2022-12-16T01:39:38;25.95;;;23.23;;
15843;SDS011;50807;52.436;13.346;2022-12-16T01:40:12;27.13;;;24.25;;
15843;SDS011;50807;52.436;13.346;2022-12-16T01:40:49;26.05;;;23.48;;
15843;SDS011;50807;52.436;13.346;2022-12-16T01:41:20;27.08;;;24.17;;
15843;SDS011;50807;52.436;13.346;2022-12-16T01:41:52;26.23;;;23.45;;
15843;SDS011;50807;52.436;13.346;2022-12-16T01:42:23;26.73;;;24.05;;
15843;SDS011;50807;52.436;13.346;2022-12-16T01:42:59;27.33;;;24.55;;
15843;SDS011;50807;52.436;13.346;2022-12-16T01:43:31;27.73;;;24.83;;
15843;SDS011;50807;52.436;13.346;2022-12-16T01:44:10;26.50;;;23.70;;
15843;SDS011;50807;52.436;13.346;2022-12-16T01:44:44;27.25;;;24.45;;
15843;SDS011;50807;52.436;13.346;2022-12-16T01:45:28;27.55;;;24.58;;
15843;SDS011;50807;52.436;13.346;2022-12-16T01:46:04;27.27;;;24.38;;
15843;SDS011;50807;52.436;13.346;2022-12-16T01:46:43;25.63;;;22.80;;
15843;SDS011;50807;52.436;13.346;2022-12-16T01:47:21;25.48;;;22.85;;
15843;SDS011;50807;52.436;13.346;2022-12-16T01:47:58;26.95;;;24.08;;
15843;SDS011;50807;52.436;13.346;2022-12-16T01:48:38;25.30;;;22.73;;
15843;SDS011;50807;52.436;13.346;2022-12-16T01:49:18;25.52;;;22.85;;
15843;SDS011;50807;52.436;13.346;2022-12-16T01:49:57;26.52;;;23.83;;
15843;SDS011;50807;52.436;13.346;2022-12-16T01:50:33;26.65;;;23.88;;
15843;SDS011;50807;52.436;13.346;2022-12-16T01:51:06;26.27;;;23.55;;
15843;SDS011;50807;52.436;13.346;2022-12-16T01:51:42;25.95;;;23.25;;
15843;SDS011;50807;52.436;13.346;2022-12-16T01:52:17;26.48;;;23.67;;
15843;SDS011;50807;52.436;13.346;2022-12-16T01:52:55;25.42;;;22.70;;
15843;SDS011;50807;52.436;13.346;2022-12-16T01:53:32;26.30;;;23.55;;
15843;SDS011;50807;52.436;13.346;2022-12-16T01:54:06;26.80;;;24.00;;
15843;SDS011;50807;52.436;13.346;2022-12-16T01:54:43;25.45;;;22.85;;
15843;SDS011;50807;52.436;13.346;2022-12-16T01:55:20;27.88;;;24.17;;
15843;SDS011;50807;52.436;13.346;2022-12-16T01:55:55;25.50;;;22.80;;
15843;SDS011;50807;52.436;13.346;2022-12-16T01:56:29;26.17;;;23.38;;
15843;SDS011;50807;52.436;13.346;2022-12-16T01:57:03;25.67;;;22.90;;
15843;SDS011;50807;52.436;13.346;2022-12-16T01:57:41;26.25;;;23.52;;
15843;SDS011;50807;52.436;13.346;2022-12-16T01:58:19;26.95;;;24.15;;
15843;SDS011;50807;52.436;13.346;2022-12-16T01:58:55;27.33;;;24.38;;
15843;SDS011;50807;52.436;13.346;2022-12-16T01:59:28;26.15;;;23.52;;
15843;SDS011;50807;52.436;13.346;2022-12-16T02:00:06;25.95;;;23.17;;
15843;SDS011;50807;52.436;13.346;2022-12-16T02:00:39;26.27;;;23.48;;
15843;SDS011;50807;52.436;13.346;2022-12-16T02:01:12;26.02;;;23.17;;
15843;SDS011;50807;52.436;13.346;2022-12-16T02:01:45;26.55;;;22.92;;
15843;SDS011;50807;52.436;13.346;2022-12-16T02:02:17;26.85;;;24.00;;
15843;SDS011;50807;52.436;13.346;2022-12-16T02:02:48;26.67;;;23.83;;
15843;SDS011;50807;52.436;13.346;2022-12-16T02:03:22;28.13;;;25.10;;
15843;SDS011;50807;52.436;13.346;2022-12-16T02:03:56;27.38;;;24.42;;
15843;SDS011;50807;52.436;13.346;2022-12-16T02:04:31;25.70;;;23.02;;
15843;SDS011;50807;52.436;13.346;2022-12-16T02:05:02;26.03;;;23.33;;
15843;SDS011;50807;52.436;13.346;2022-12-16T02:05:50;25.63;;;22.67;;
15843;SDS011;50807;52.436;13.346;2022-12-16T02:06:22;25.38;;;22.75;;
15843;SDS011;50807;52.436;13.346;2022-12-16T02:06:54;24.95;;;22.30;;
15843;SDS011;50807;52.436;13.346;2022-12-16T02:07:26;25.02;;;22.52;;
15843;SDS011;50807;52.436;13.346;2022-12-16T02:07:58;26.20;;;23.50;;
15843;SDS011;50807;52.436;13.346;2022-12-16T02:08:32;25.35;;;22.63;;
15843;SDS011;50807;52.436;13.346;2022-12-16T02:09:06;25.10;;;22.52;;
15843;SDS011;50807;52.436;13.346;2022-12-16T02:09:40;25.63;;;22.80;;
15843;SDS011;50807;52.436;13.346;2022-12-16T02:10:12;25.15;;;22.55;;
15843;SDS011;50807;52.436;13.346;2022-12-16T02:10:46;27.27;;;24.30;;
15843;SDS011;50807;52.436;13.346;2022-12-16T02:12:43;24.90;;;22.38;;
15843;SDS011;50807;52.436;13.346;2022-12-16T02:13:30;26.95;;;23.80;;
15843;SDS011;50807;52.436;13.346;2022-12-16T02:14:27;25.70;;;22.08;;
15843;SDS011;50807;52.436;13.346;2022-12-16T02:15:28;24.35;;;20.58;;
15843;SDS011;50807;52.436;13.346;2022-12-16T02:16:13;24.05;;;21.33;;
15843;SDS011;50807;52.436;13.346;2022-12-16T02:16:52;26.38;;;22.23;;
15843;SDS011;50807;52.436;13.346;2022-12-16T02:17:32;25.90;;;23.10;;
15843;SDS011;50807;52.436;13.346;2022-12-16T02:18:17;25.52;;;22.42;;
15843;SDS011;50807;52.436;13.346;2022-12-16T02:18:59;25.05;;;22.10;;
15843;SDS011;50807;52.436;13.346;2022-12-16T02:19:52;25.27;;;22.58;;
15843;SDS011;50807;52.436;13.346;2022-12-16T02:21:02;23.80;;;21.30;;
15843;SDS011;50807;52.436;13.346;2022-12-16T02:21:57;22.60;;;20.23;;
15843;SDS011;50807;52.436;13.346;2022-12-16T02:22:58;24.95;;;22.27;;
15843;SDS011;50807;52.436;13.346;2022-12-16T02:25:43;21.98;;;19.65;;
15843;SDS011;50807;52.436;13.346;2022-12-16T02:26:43;23.45;;;19.50;;
15843;SDS011;50807;52.436;13.346;2022-12-16T02:27:54;21.65;;;19.35;;
15843;SDS011;50807;52.436;13.346;2022-12-16T02:28:38;22.60;;;19.58;;
15843;SDS011;50807;52.436;13.346;2022-12-16T02:29:43;22.98;;;20.50;;
15843;SDS011;50807;52.436;13.346;2022-12-16T02:31:49;23.35;;;20.42;;
15843;SDS011;50807;52.436;13.346;2022-12-16T02:32:28;23.13;;;20.75;;
15843;SDS011;50807;52.436;13.346;2022-12-16T02:33:13;22.33;;;19.92;;
15843;SDS011;50807;52.436;13.346;2022-12-16T02:34:07;22.60;;;20.20;;
15843;SDS011;50807;52.436;13.346;2022-12-16T02:34:48;22.95;;;19.92;;
15843;SDS011;50807;52.436;13.346;2022-12-16T02:35:32;23.23;;;20.45;;
15843;SDS011;50807;52.436;13.346;2022-12-16T02:36:16;22.30;;;19.92;;
15843;SDS011;50807;52.436;13.346;2022-12-16T02:37:08;23.23;;;20.73;;
15843;SDS011;50807;52.436;13.346;2022-12-16T02:37:50;24.70;;;20.63;;
15843;SDS011;50807;52.436;13.346;2022-12-16T02:38:38;22.20;;;19.92;;
15843;SDS011;50807;52.436;13.346;2022-12-16T02:39:19;22.90;;;20.48;;
15843;SDS011;50807;52.436;13.346;2022-12-16T02:39:55;22.40;;;20.00;;
15843;SDS011;50807;52.436;13.346;2022-12-16T02:40:35;26.40;;;21.73;;
15843;SDS011;50807;52.436;13.346;2022-12-16T02:41:14;24.05;;;21.42;;
15843;SDS011;50807;52.436;13.346;2022-12-16T02:41:54;23.98;;;21.25;;
15843;SDS011;50807;52.436;13.346;2022-12-16T02:42:37;24.63;;;21.50;;
15843;SDS011;50807;52.436;13.346;2022-12-16T02:43:17;23.45;;;20.92;;
15843;SDS011;50807;52.436;13.346;2022-12-16T02:44:15;23.90;;;21.30;;
15843;SDS011;50807;52.436;13.346;2022-12-16T02:44:49;22.33;;;19.92;;
15843;SDS011;50807;52.436;13.346;2022-12-16T02:45:31;22.75;;;20.35;;
15843;SDS011;50807;52.436;13.346;2022-12-16T02:46:04;23.13;;;20.63;;
15843;SDS011;50807;52.436;13.346;2022-12-16T02:46:38;23.20;;;20.77;;
15843;SDS011;50807;52.436;13.346;2022-12-16T02:47:12;23.63;;;21.15;;
15843;SDS011;50807;52.436;13.346;2022-12-16T02:47:44;24.67;;;22.02;;
15843;SDS011;50807;52.436;13.346;2022-12-16T02:48:16;23.77;;;21.38;;
15843;SDS011;50807;52.436;13.346;2022-12-16T02:48:47;24.65;;;22.05;;
15843;SDS011;50807;52.436;13.346;2022-12-16T02:49:40;23.40;;;21.00;;
15843;SDS011;50807;52.436;13.346;2022-12-16T02:50:20;22.75;;;20.45;;
15843;SDS011;50807;52.436;13.346;2022-12-16T02:50:55;24.10;;;20.73;;
15843;SDS011;50807;52.436;13.346;2022-12-16T02:51:26;23.73;;;20.83;;
15843;SDS011;50807;52.436;13.346;2022-12-16T02:51:58;23.73;;;21.27;;
15843;SDS011;50807;52.436;13.346;2022-12-16T02:52:31;23.30;;;20.95;;
15843;SDS011;50807;52.436;13.346;2022-12-16T02:53:04;23.00;;;20.52;;
15843;SDS011;50807;52.436;13.346;2022-12-16T02:53:39;22.90;;;20.25;;
15843;SDS011;50807;52.436;13.346;2022-12-16T02:54:13;23.15;;;20.75;;
15843;SDS011;50807;52.436;13.346;2022-12-16T02:54:46;22.90;;;20.60;;
15843;SDS011;50807;52.436;13.346;2022-12-16T02:55:21;23.73;;;21.33;;
15843;SDS011;50807;52.436;13.346;2022-12-16T02:56:05;21.92;;;19.80;;
15843;SDS011;50807;52.436;13.346;2022-12-16T02:57:01;21.73;;;19.40;;
15843;SDS011;50807;52.436;13.346;2022-12-16T02:58:03;22.70;;;20.30;;
15843;SDS011;50807;52.436;13.346;2022-12-16T02:58:48;22.85;;;20.27;;
15843;SDS011;50807;52.436;13.346;2022-12-16T02:59:37;21.90;;;19.50;;
15843;SDS011;50807;52.436;13.346;2022-12-16T03:00:19;22.98;;;20.63;;
15843;SDS011;50807;52.436;13.346;2022-12-16T03:00:55;23.02;;;20.55;;
15843;SDS011;50807;52.436;13.346;2022-12-16T03:01:38;23.15;;;20.55;;
15843;SDS011;50807;52.436;13.346;2022-12-16T03:02:21;22.17;;;19.83;;
15843;SDS011;50807;52.436;13.346;2022-12-16T03:02:59;22.33;;;19.92;;
15843;SDS011;50807;52.436;13.346;2022-12-16T03:03:40;22.48;;;20.08;;
15843;SDS011;50807;52.436;13.346;2022-12-16T03:04:19;23.17;;;20.45;;
15843;SDS011;50807;52.436;13.346;2022-12-16T03:04:58;22.95;;;20.55;;
15843;SDS011;50807;52.436;13.346;2022-12-16T03:05:38;24.38;;;21.77;;
15843;SDS011;50807;52.436;13.346;2022-12-16T03:06:17;22.95;;;20.30;;
15843;SDS011;50807;52.436;13.346;2022-12-16T03:06:52;22.88;;;20.33;;
15843;SDS011;50807;52.436;13.346;2022-12-16T03:07:27;24.05;;;21.55;;
15843;SDS011;50807;52.436;13.346;2022-12-16T03:08:04;23.58;;;21.08;;
15843;SDS011;50807;52.436;13.346;2022-12-16T03:08:44;23.88;;;21.25;;
15843;SDS011;50807;52.436;13.346;2022-12-16T03:09:23;24.13;;;21.33;;
15843;SDS011;50807;52.436;13.346;2022-12-16T03:10:01;23.75;;;21.25;;
15843;SDS011;50807;52.436;13.346;2022-12-16T03:10:37;22.95;;;20.50;;
15843;SDS011;50807;52.436;13.346;2022-12-16T03:11:14;22.05;;;19.75;;
15843;SDS011;50807;52.436;13.346;2022-12-16T03:11:46;24.45;;;21.48;;
15843;SDS011;50807;52.436;13.346;2022-12-16T03:12:19;24.67;;;22.13;;
15843;SDS011;50807;52.436;13.346;2022-12-16T03:12:52;22.67;;;20.33;;
15843;SDS011;50807;52.436;13.346;2022-12-16T03:13:27;22.92;;;20.45;;
15843;SDS011;50807;52.436;13.346;2022-12-16T03:14:03;22.67;;;20.13;;
15843;SDS011;50807;52.436;13.346;2022-12-16T03:14:38;24.27;;;21.70;;
15843;SDS011;50807;52.436;13.346;2022-12-16T03:15:16;23.40;;;20.92;;
15843;SDS011;50807;52.436;13.346;2022-12-16T03:15:53;23.70;;;21.25;;
15843;SDS011;50807;52.436;13.346;2022-12-16T03:16:30;23.92;;;21.33;;
15843;SDS011;50807;52.436;13.346;2022-12-16T03:17:03;22.45;;;20.10;;
15843;SDS011;50807;52.436;13.346;2022-12-16T03:17:37;24.52;;;21.92;;
15843;SDS011;50807;52.436;13.346;2022-12-16T03:18:14;24.63;;;22.13;;
15843;SDS011;50807;52.436;13.346;2022-12-16T03:18:49;22.60;;;20.30;;
15843;SDS011;50807;52.436;13.346;2022-12-16T03:19:26;22.20;;;19.67;;
15843;SDS011;50807;52.436;13.346;2022-12-16T03:20:00;21.92;;;19.63;;
15843;SDS011;50807;52.436;13.346;2022-12-16T03:20:40;24.15;;;21.55;;
15843;SDS011;50807;52.436;13.346;2022-12-16T03:21:17;22.92;;;20.55;;
15843;SDS011;50807;52.436;13.346;2022-12-16T03:21:53;23.45;;;20.98;;
15843;SDS011;50807;52.436;13.346;2022-12-16T03:22:32;22.52;;;20.23;;
15843;SDS011;50807;52.436;13.346;2022-12-16T03:23:09;22.65;;;20.25;;
15843;SDS011;50807;52.436;13.346;2022-12-16T03:23:46;23.10;;;20.70;;
15843;SDS011;50807;52.436;13.346;2022-12-16T03:24:22;22.30;;;19.90;;
15843;SDS011;50807;52.436;13.346;2022-12-16T03:24:55;24.02;;;21.42;;
15843;SDS011;50807;52.436;13.346;2022-12-16T03:25:26;23.47;;;20.97;;
15843;SDS011;50807;52.436;13.346;2022-12-16T03:26:01;23.27;;;20.80;;
15843;SDS011;50807;52.436;13.346;2022-12-16T03:26:39;24.15;;;21.60;;